createdAt,value
2018-04-26T00:01:16.264Z,75.82
2018-04-26T00:03:47.039Z,71.15
2018-04-26T00:06:17.761Z,75.60
2018-04-26T00:08:48.407Z,72.85
2018-04-26T00:11:19.076Z,68.60
2018-04-26T00:13:49.809Z,65.70
2018-04-26T00:16:20.529Z,66.85
2018-04-26T00:18:51.149Z,66.72
2018-04-26T00:21:21.918Z,69.90
2018-04-26T00:23:52.555Z,73.70
2018-04-26T00:26:23.120Z,68.68
2018-04-26T00:28:54.051Z,69.55
2018-04-26T00:31:24.746Z,68.93
2018-04-26T00:33:55.581Z,73.28
2018-04-26T00:36:26.314Z,63.70
2018-04-26T00:38:56.966Z,65.32
2018-04-26T00:41:27.495Z,59.83
2018-04-26T00:43:58.210Z,65.50
2018-04-26T00:46:28.826Z,65.82
2018-04-26T00:48:59.448Z,65.32
2018-04-26T00:51:38.648Z,59.75
2018-04-26T00:54:09.769Z,66.72
2018-04-26T00:56:40.385Z,69.87
2018-04-26T00:59:11.185Z,68.12
2018-04-26T01:01:42.083Z,70.68
2018-04-26T01:04:12.750Z,70.95
2018-04-26T01:06:43.347Z,68.95
2018-04-26T01:09:14.001Z,75.12
2018-04-26T01:11:45.215Z,70.82
2018-04-26T01:14:16.123Z,73.78
2018-04-26T01:16:46.841Z,76.60
2018-04-26T01:19:17.571Z,82.28
2018-04-26T01:21:48.476Z,78.47
2018-04-26T01:24:19.157Z,76.53
2018-04-26T01:26:49.914Z,81.28
2018-04-26T01:29:20.436Z,79.97
2018-04-26T01:31:51.116Z,78.05
2018-04-26T01:34:21.753Z,75.70
2018-04-26T01:38:00.667Z,72.72
2018-04-26T01:40:31.355Z,76.30
2018-04-26T01:43:02.076Z,75.82
2018-04-26T01:45:32.799Z,78.22
2018-04-26T01:48:03.440Z,79.93
2018-04-26T01:50:34.283Z,73.35
2018-04-26T01:53:04.843Z,76.03
2018-04-26T01:55:35.549Z,78.82
2018-04-26T01:58:06.141Z,74.45
2018-04-26T02:00:36.850Z,84.43
2018-04-26T02:03:07.364Z,80.53
2018-04-26T02:05:37.982Z,79.75
2018-04-26T02:08:08.742Z,82.15
2018-04-26T02:10:39.426Z,86.82
2018-04-26T02:13:10.050Z,85.47
2018-04-26T02:15:40.658Z,81.10
2018-04-26T02:18:11.333Z,78.75
2018-04-26T02:20:42.330Z,81.35
2018-04-26T02:23:13.203Z,91.85
2018-04-26T02:25:43.870Z,82.95
2018-04-26T02:28:14.559Z,92.78
2018-04-26T02:30:45.176Z,83.47
2018-04-26T02:33:15.794Z,85.68
2018-04-26T02:35:46.534Z,84.90
2018-04-26T02:38:17.296Z,79.00
2018-04-26T02:40:47.836Z,77.50
2018-04-26T02:43:18.497Z,79.18
2018-04-26T02:45:49.051Z,77.03
2018-04-26T02:48:19.725Z,75.85
2018-04-26T02:50:50.300Z,77.32
2018-04-26T02:53:20.924Z,72.60
2018-04-26T02:55:51.530Z,76.78
2018-04-26T02:58:22.246Z,80.90
2018-04-26T03:00:52.864Z,78.28
2018-04-26T03:03:23.491Z,74.10
2018-04-26T03:05:54.193Z,67.30
2018-04-26T03:08:24.853Z,73.15
2018-04-26T03:10:55.524Z,68.72
2018-04-26T03:13:26.280Z,73.80
2018-04-26T03:15:57.389Z,74.28
2018-04-26T03:18:28.018Z,75.47
2018-04-26T03:20:58.703Z,70.20
2018-04-26T03:23:29.355Z,71.62
2018-04-26T03:25:59.984Z,72.35
2018-04-26T03:28:30.705Z,71.18
2018-04-26T03:31:01.464Z,68.90
2018-04-26T03:33:32.132Z,74.90
2018-04-26T03:36:02.875Z,72.87
2018-04-26T03:38:33.543Z,71.93
2018-04-26T03:41:04.265Z,70.87
2018-04-26T03:43:34.798Z,76.97
2018-04-26T03:46:05.780Z,75.37
2018-04-26T03:48:36.597Z,76.82
2018-04-26T03:51:07.269Z,71.15
2018-04-26T03:53:37.912Z,75.80
2018-04-26T03:56:09.074Z,70.47
2018-04-26T03:58:39.617Z,70.60
2018-04-26T04:03:26.223Z,73.47
2018-04-26T04:06:01.429Z,75.12
2018-04-26T04:08:32.192Z,71.25
2018-04-26T04:11:02.989Z,83.43
2018-04-26T04:13:33.604Z,74.20
2018-04-26T04:16:04.252Z,76.97
2018-04-26T04:18:35.080Z,78.20
2018-04-26T04:21:05.886Z,74.72
2018-04-26T04:23:36.439Z,71.22
2018-04-26T04:26:06.972Z,72.70
2018-04-26T04:28:37.564Z,70.55
2018-04-26T04:31:08.202Z,79.80
2018-04-26T04:33:38.859Z,74.18
2018-04-26T04:36:09.567Z,73.40
2018-04-26T04:38:40.224Z,74.20
2018-04-26T04:41:10.789Z,71.35
2018-04-26T04:43:41.457Z,74.00
2018-04-26T04:46:12.525Z,69.32
2018-04-26T04:48:43.185Z,69.78
2018-04-26T04:51:13.767Z,73.03
2018-04-26T04:53:45.016Z,66.85
2018-04-26T04:56:15.588Z,59.78
2018-04-26T04:58:46.277Z,61.85
2018-04-26T05:01:16.976Z,60.92
2018-04-26T05:03:47.972Z,62.70
2018-04-26T05:06:18.851Z,66.85
2018-04-26T05:08:49.746Z,70.35
2018-04-26T05:11:20.571Z,61.70
2018-04-26T05:13:51.501Z,65.35
2018-04-26T05:16:22.112Z,66.95
2018-04-26T05:18:52.686Z,75.85
2018-04-26T05:21:23.275Z,65.97
2018-04-26T05:23:53.898Z,71.95
2018-04-26T05:26:24.933Z,69.32
2018-04-26T05:28:55.678Z,67.78
2018-04-26T05:31:26.393Z,64.97
2018-04-26T05:33:57.045Z,70.78
2018-04-26T05:36:27.576Z,68.93
2018-04-26T05:38:58.394Z,64.68
2018-04-26T05:41:29.071Z,66.00
2018-04-26T05:44:00.324Z,64.87
2018-04-26T05:46:30.984Z,64.65
2018-04-26T05:49:01.677Z,63.78
2018-04-26T05:51:32.416Z,66.43
2018-04-26T05:54:03.092Z,63.22
2018-04-26T05:56:33.619Z,58.97
2018-04-26T05:59:04.380Z,63.60
2018-04-26T06:01:35.004Z,63.50
2018-04-26T06:04:06.116Z,70.72
2018-04-26T06:06:36.869Z,65.57
2018-04-26T06:09:08.388Z,67.07
2018-04-26T06:11:39.340Z,66.45
2018-04-26T06:14:10.093Z,68.20
2018-04-26T06:16:41.004Z,60.65
2018-04-26T06:19:11.643Z,65.70
2018-04-26T06:21:42.291Z,72.00
2018-04-26T06:24:12.972Z,65.18
2018-04-26T06:26:43.605Z,64.10
2018-04-26T06:29:14.191Z,71.43
2018-04-26T06:31:44.869Z,68.32
2018-04-26T06:34:15.465Z,68.37
2018-04-26T06:36:46.088Z,65.57
2018-04-26T06:39:17.286Z,64.62
2018-04-26T06:41:47.929Z,65.30
2018-04-26T06:44:18.571Z,65.50
2018-04-26T06:46:49.432Z,62.60
2018-04-26T06:49:20.104Z,64.95
2018-04-26T06:51:50.687Z,69.60
2018-04-26T06:54:21.288Z,67.97
2018-04-26T06:56:51.924Z,68.47
2018-04-26T06:59:22.454Z,67.28
2018-04-26T07:01:53.017Z,67.62
2018-04-26T07:04:23.767Z,69.20
2018-04-26T07:06:54.289Z,69.28
2018-04-26T07:09:24.842Z,67.45
2018-04-26T07:11:55.792Z,62.62
2018-04-26T07:14:26.435Z,66.82
2018-04-26T07:16:57.088Z,68.62
2018-04-26T07:19:27.748Z,64.07
2018-04-26T07:21:58.329Z,61.67
2018-04-26T07:24:29.047Z,62.17
2018-04-26T07:26:59.677Z,64.00
2018-04-26T07:29:30.431Z,63.58
2018-04-26T07:32:00.996Z,62.67
2018-04-26T07:34:31.731Z,65.43
2018-04-26T07:37:02.425Z,66.43
2018-04-26T07:39:33.243Z,60.12
2018-04-26T07:42:03.822Z,66.68
2018-04-26T07:44:34.474Z,66.62
2018-04-26T07:47:05.106Z,66.80
2018-04-26T07:49:36.267Z,65.87
2018-04-26T07:52:07.067Z,63.47
2018-04-26T07:54:37.593Z,63.70
2018-04-26T07:57:08.183Z,61.92
2018-04-26T07:59:39.101Z,68.35
2018-04-26T08:02:09.821Z,61.53
2018-04-26T08:04:40.407Z,68.15
2018-04-26T08:07:10.964Z,61.97
2018-04-26T08:09:41.501Z,69.93
2018-04-26T08:12:12.248Z,69.03
2018-04-26T08:14:43.014Z,68.45
2018-04-26T08:17:13.711Z,69.03
2018-04-26T08:19:44.314Z,74.40
2018-04-26T08:22:14.978Z,70.28
2018-04-26T08:24:45.661Z,67.30
2018-04-26T08:27:16.325Z,69.12
2018-04-26T08:29:46.993Z,69.82
2018-04-26T08:32:17.729Z,72.60
2018-04-26T08:34:48.306Z,70.15
2018-04-26T08:37:19.182Z,67.87
2018-04-26T08:39:49.965Z,62.60
2018-04-26T08:42:20.643Z,70.80
2018-04-26T08:44:51.253Z,73.30
2018-04-26T08:47:21.940Z,75.55
2018-04-26T08:49:52.676Z,75.80
2018-04-26T08:52:23.522Z,73.62
2018-04-26T08:54:54.238Z,72.25
2018-04-26T08:57:25.050Z,77.85
2018-04-26T08:59:55.625Z,78.37
2018-04-26T09:02:26.427Z,80.65
2018-04-26T09:04:57.145Z,81.30
2018-04-26T09:07:27.858Z,78.03
2018-04-26T09:09:58.469Z,72.70
2018-04-26T09:12:29.376Z,75.22
2018-04-26T09:14:59.976Z,72.93
2018-04-26T09:17:30.667Z,74.20
2018-04-26T09:20:01.366Z,74.60
2018-04-26T09:22:31.997Z,74.43
2018-04-26T09:25:02.835Z,70.03
2018-04-26T09:27:33.584Z,68.78
2018-04-26T09:30:04.207Z,68.43
2018-04-26T09:32:34.869Z,66.70
2018-04-26T09:35:05.601Z,69.22
2018-04-26T09:37:36.298Z,68.72
2018-04-26T09:40:07.092Z,68.43
2018-04-26T09:42:37.855Z,70.87
2018-04-26T09:45:08.595Z,67.80
2018-04-26T09:47:39.284Z,67.97
2018-04-26T09:50:10.035Z,69.50
2018-04-26T09:52:40.840Z,72.10
2018-04-26T09:55:11.449Z,70.78
2018-04-26T09:57:41.991Z,71.10
2018-04-26T10:00:16.731Z,72.30
2018-04-26T10:02:47.664Z,78.65
2018-04-26T10:05:18.996Z,79.25
2018-04-26T10:07:49.708Z,75.15
2018-04-26T10:10:20.580Z,78.57
2018-04-26T10:12:51.242Z,74.28
2018-04-26T10:15:21.809Z,75.28
2018-04-26T10:17:52.715Z,71.22
2018-04-26T10:20:23.444Z,72.03
2018-04-26T10:22:54.119Z,71.95
2018-04-26T10:25:24.722Z,72.87
2018-04-26T10:27:55.280Z,74.80
2018-04-26T10:30:25.844Z,76.32
2018-04-26T10:32:56.466Z,76.47
2018-04-26T10:35:28.289Z,74.82
2018-04-26T10:37:58.994Z,72.32
2018-04-26T10:40:29.649Z,74.07
2018-04-26T10:43:01.334Z,80.22
2018-04-26T10:45:32.083Z,77.68
2018-04-26T10:48:02.681Z,68.87
2018-04-26T10:50:33.580Z,78.03
2018-04-26T10:53:04.190Z,78.68
2018-04-26T10:55:35.189Z,78.65
2018-04-26T10:58:05.783Z,71.70
2018-04-26T11:00:40.369Z,76.22
2018-04-26T11:03:13.126Z,76.78
2018-04-26T11:05:43.893Z,81.47
2018-04-26T11:08:14.846Z,83.85
2018-04-26T11:10:46.396Z,73.53
2018-04-26T11:13:17.023Z,81.57
2018-04-26T11:15:47.861Z,77.03
2018-04-26T11:18:18.788Z,74.53
2018-04-26T11:20:49.836Z,75.43
2018-04-26T11:23:21.020Z,83.28
2018-04-26T11:25:51.828Z,76.95
2018-04-26T11:28:22.483Z,75.70
2018-04-26T11:30:53.686Z,83.12
2018-04-26T11:33:24.315Z,78.37
2018-04-26T11:35:55.415Z,80.20
2018-04-26T11:38:26.223Z,88.15
2018-04-26T11:40:57.497Z,80.85
2018-04-26T11:43:28.195Z,79.00
2018-04-26T11:45:58.937Z,79.68
2018-04-26T11:48:29.568Z,79.28
2018-04-26T11:51:00.391Z,79.30
2018-04-26T11:53:31.206Z,77.03
2018-04-26T11:56:01.985Z,75.12
2018-04-26T11:58:32.759Z,77.75
2018-04-26T12:01:03.364Z,74.45
2018-04-26T12:03:34.140Z,72.95
2018-04-26T12:06:05.033Z,71.65
2018-04-26T12:08:35.694Z,71.82
2018-04-26T12:11:07.359Z,68.80
2018-04-26T12:13:38.032Z,79.75
2018-04-26T12:16:09.173Z,79.35
2018-04-26T12:18:40.152Z,78.12
2018-04-26T12:21:11.018Z,74.62
2018-04-26T12:23:41.649Z,78.15
2018-04-26T12:26:12.468Z,76.57
2018-04-26T12:28:44.106Z,73.07
2018-04-26T12:31:14.811Z,70.15
2018-04-26T12:33:45.627Z,79.47
2018-04-26T12:36:16.246Z,78.05
2018-04-26T12:38:46.911Z,75.37
2018-04-26T12:41:17.580Z,73.57
2018-04-26T12:43:48.414Z,72.18
2018-04-26T12:46:19.427Z,70.00
2018-04-26T12:48:50.087Z,73.47
2018-04-26T12:51:20.835Z,72.68
2018-04-26T12:53:51.444Z,73.75
2018-04-26T12:56:22.159Z,77.68
2018-04-26T12:58:52.983Z,84.85
2018-04-26T13:01:23.730Z,79.93
2018-04-26T13:03:54.412Z,79.35
2018-04-26T13:06:25.209Z,81.90
2018-04-26T13:08:55.855Z,78.45
2018-04-26T13:11:26.658Z,76.00
2018-04-26T13:14:03.287Z,93.95
2018-04-26T13:16:37.722Z,87.43
2018-04-26T13:19:08.529Z,85.75
2018-04-26T13:21:39.312Z,86.03
2018-04-26T13:24:09.933Z,83.40
2018-04-26T13:26:40.651Z,76.80
2018-04-26T13:29:11.285Z,78.80
2018-04-26T13:31:42.054Z,76.57
2018-04-26T13:34:12.684Z,78.62
2018-04-26T13:36:43.488Z,75.22
2018-04-26T13:39:14.313Z,77.22
2018-04-26T13:41:45.146Z,80.85
2018-04-26T13:44:15.774Z,76.40
2018-04-26T13:46:51.109Z,80.18
2018-04-26T13:49:24.296Z,79.97
2018-04-26T13:51:56.571Z,82.43
2018-04-26T13:54:27.795Z,82.47
2018-04-26T13:56:58.707Z,82.93
2018-04-26T13:59:29.288Z,90.12
2018-04-26T14:02:00.203Z,86.53
2018-04-26T14:04:30.933Z,80.65
2018-04-26T14:07:01.665Z,83.43
2018-04-26T14:09:32.525Z,80.45
2018-04-26T14:12:03.557Z,85.12
2018-04-26T14:14:34.288Z,97.12
2018-04-26T14:17:05.948Z,94.75
2018-04-26T14:19:37.049Z,86.28
2018-04-26T14:22:07.670Z,86.37
2018-04-26T14:24:38.360Z,92.10
2018-04-26T14:27:09.035Z,88.18
2018-04-26T14:29:39.995Z,88.32
2018-04-26T14:32:10.624Z,88.75
2018-04-26T14:34:41.266Z,89.40
2018-04-26T14:37:12.093Z,81.75
2018-04-26T14:39:43.068Z,90.03
2018-04-26T14:42:13.600Z,87.60
2018-04-26T14:44:44.303Z,84.18
2018-04-26T14:47:15.270Z,86.28
2018-04-26T14:49:46.386Z,82.43
2018-04-26T14:52:17.055Z,78.07
2018-04-26T14:54:47.668Z,81.15
2018-04-26T14:57:18.453Z,78.43
2018-04-26T14:59:49.223Z,86.93
2018-04-26T15:02:19.964Z,77.45
2018-04-26T15:04:52.347Z,83.07
2018-04-26T15:07:23.006Z,81.75
2018-04-26T15:09:54.240Z,79.22
2018-04-26T15:12:25.096Z,76.18
2018-04-26T15:14:55.797Z,75.47
2018-04-26T15:17:27.398Z,78.18
2018-04-26T15:19:58.318Z,76.60
2018-04-26T15:22:29.164Z,81.75
2018-04-26T15:24:59.962Z,78.90
2018-04-26T15:27:30.811Z,81.45
2018-04-26T15:30:01.405Z,84.10
2018-04-26T15:32:32.288Z,83.65
2018-04-26T15:35:03.325Z,86.93
2018-04-26T15:37:34.315Z,84.25
2018-04-26T15:40:04.906Z,87.40
2018-04-26T15:42:35.481Z,87.50
2018-04-26T15:45:06.157Z,84.57
2018-04-26T15:47:36.793Z,83.43
2018-04-26T15:50:07.999Z,89.13
2018-04-26T15:52:51.541Z,83.32
2018-04-26T15:56:35.879Z,87.78
2018-04-26T16:00:18.968Z,80.30
2018-04-26T16:04:01.324Z,80.00
2018-04-26T16:06:42.674Z,78.45
2018-04-26T16:09:55.483Z,80.85
2018-04-26T16:15:52.586Z,83.62
2018-04-26T16:18:59.818Z,75.15
2018-04-26T16:22:47.741Z,74.75
2018-04-26T16:25:29.088Z,95.55
2018-04-26T16:28:12.062Z,77.53
2018-04-26T16:30:57.650Z,75.22
2018-04-26T16:33:47.207Z,85.20
2018-04-26T16:36:27.526Z,81.63
2018-04-26T16:39:04.199Z,77.25
2018-04-26T16:41:35.384Z,76.05
2018-04-26T16:44:05.913Z,76.15
2018-04-26T16:46:36.544Z,79.32
2018-04-26T16:49:07.489Z,76.22
2018-04-26T16:51:38.273Z,76.95
2018-04-26T16:54:08.915Z,74.25
2018-04-26T16:56:39.653Z,71.57
2018-04-26T16:59:10.177Z,76.85
2018-04-26T17:01:40.938Z,80.35
2018-04-26T17:04:11.726Z,73.75
2018-04-26T17:06:42.411Z,76.22
2018-04-26T17:09:13.163Z,76.53
2018-04-26T17:11:43.732Z,71.68
2018-04-26T17:14:14.443Z,77.10
2018-04-26T17:16:45.214Z,78.62
2018-04-26T17:19:15.945Z,84.28
2018-04-26T17:21:46.824Z,81.93
2018-04-26T17:24:17.706Z,82.05
2018-04-26T17:26:48.423Z,75.75
2018-04-26T17:29:19.281Z,70.53
2018-04-26T17:31:50.183Z,72.10
2018-04-26T17:34:20.822Z,71.82
2018-04-26T17:36:51.592Z,76.00
2018-04-26T17:39:22.388Z,74.75
2018-04-26T17:41:53.231Z,77.87
2018-04-26T17:44:23.801Z,79.50
2018-04-26T17:46:54.567Z,78.53
2018-04-26T17:49:25.260Z,72.97
2018-04-26T17:51:55.963Z,75.43
2018-04-26T17:54:26.815Z,77.65
2018-04-26T17:56:57.546Z,76.85
2018-04-26T17:59:29.079Z,77.65
2018-04-26T18:01:59.692Z,71.45
2018-04-26T18:04:31.399Z,75.37
2018-04-26T18:07:01.977Z,77.85
2018-04-26T18:09:32.725Z,82.70
2018-04-26T18:12:03.461Z,73.57
2018-04-26T18:14:34.172Z,76.47
2018-04-26T18:17:05.124Z,70.37
2018-04-26T18:19:35.945Z,76.30
2018-04-26T18:22:06.668Z,71.75
2018-04-26T18:24:37.260Z,101.43
2018-04-26T18:27:08.084Z,82.47
2018-04-26T18:29:38.606Z,75.60
2018-04-26T18:32:09.278Z,77.28
2018-04-26T18:34:39.898Z,81.55
2018-04-26T18:37:10.724Z,74.12
2018-04-26T18:39:41.423Z,74.93
2018-04-26T18:42:12.138Z,72.03
2018-04-26T18:44:43.242Z,75.28
2018-04-26T18:47:14.071Z,70.53
2018-04-26T18:49:44.758Z,74.93
2018-04-26T18:52:15.595Z,71.95
2018-04-26T18:54:46.329Z,79.05
2018-04-26T18:57:17.109Z,73.03
2018-04-26T18:59:48.047Z,76.87
2018-04-26T19:02:18.947Z,65.97
2018-04-26T19:04:49.673Z,73.78
2018-04-26T19:07:20.447Z,71.70
2018-04-26T19:09:51.966Z,71.57
2018-04-26T19:12:22.671Z,74.60
2018-04-26T19:14:53.874Z,71.15
2018-04-26T19:17:24.483Z,68.57
2018-04-26T19:19:55.366Z,73.10
2018-04-26T19:22:26.315Z,75.45
2018-04-26T19:24:57.162Z,67.97
2018-04-26T19:27:28.078Z,62.53
2018-04-26T19:29:58.665Z,70.75
2018-04-26T19:32:29.439Z,65.72
2018-04-26T19:35:00.629Z,66.93
2018-04-26T19:37:31.499Z,70.55
2018-04-26T19:40:02.232Z,69.70
2018-04-26T19:42:33.047Z,66.78
2018-04-26T19:45:03.944Z,67.57
2018-04-26T19:51:03.746Z,79.00
2018-04-26T19:56:38.296Z,68.65
2018-04-26T19:59:08.860Z,70.20
2018-04-26T20:01:39.678Z,69.95
2018-04-26T20:04:10.328Z,72.60
2018-04-26T20:06:41.451Z,74.78
2018-04-26T20:09:12.459Z,80.43
2018-04-26T20:11:43.172Z,72.55
2018-04-26T20:14:13.747Z,76.97
2018-04-26T20:16:44.297Z,69.90
2018-04-26T20:19:15.139Z,65.57
2018-04-26T20:21:45.709Z,71.65
2018-04-26T20:24:16.397Z,69.20
2018-04-26T20:26:49.424Z,74.45
2018-04-26T20:29:20.447Z,70.35
2018-04-26T20:31:51.055Z,74.18
2018-04-26T20:34:22.492Z,74.20
2018-04-26T20:36:53.113Z,79.68
2018-04-26T20:39:23.815Z,74.35
2018-04-26T20:41:56.649Z,69.35
2018-04-26T20:44:52.041Z,64.20
2018-04-26T20:47:22.707Z,65.07
2018-04-26T20:49:53.265Z,58.95
2018-04-26T20:52:23.888Z,60.35
2018-04-26T20:54:54.597Z,63.63
2018-04-26T20:57:25.423Z,67.43
2018-04-26T20:59:56.115Z,61.60
2018-04-26T21:02:26.886Z,63.90
2018-04-26T21:04:57.577Z,66.10
2018-04-26T21:07:28.125Z,63.95
2018-04-26T21:09:59.016Z,65.78
2018-04-26T21:12:29.641Z,65.28
2018-04-26T21:15:00.212Z,60.38
2018-04-26T21:17:30.688Z,68.43
2018-04-26T21:20:02.040Z,62.00
2018-04-26T21:22:32.810Z,66.32
2018-04-26T21:25:03.511Z,62.85
2018-04-26T21:27:34.155Z,67.68
2018-04-26T21:30:04.832Z,64.95
2018-04-26T21:32:35.401Z,63.60
2018-04-26T21:35:05.948Z,67.07
2018-04-26T21:37:36.847Z,63.78
2018-04-26T21:40:07.740Z,69.72
2018-04-26T21:42:38.430Z,65.85
2018-04-26T21:45:08.928Z,69.37
2018-04-26T21:47:39.650Z,65.12
2018-04-26T21:50:15.400Z,65.55
2018-04-26T21:52:51.213Z,66.47
2018-04-26T21:55:27.563Z,64.25
2018-04-26T21:58:03.410Z,70.65
2018-04-26T22:00:39.177Z,67.47
2018-04-26T22:03:09.995Z,59.90
2018-04-26T22:05:40.784Z,67.43
2018-04-26T22:08:11.536Z,66.45
2018-04-26T22:10:42.202Z,71.25
2018-04-26T22:13:12.793Z,67.60
2018-04-26T22:15:43.420Z,71.47
2018-04-26T22:18:13.988Z,73.65
2018-04-26T22:20:44.552Z,65.45
2018-04-26T22:23:15.143Z,68.62
2018-04-26T22:25:45.827Z,63.67
2018-04-26T22:28:16.483Z,62.17
2018-04-26T22:30:46.953Z,66.70
2018-04-26T22:33:17.440Z,67.60
2018-04-26T22:35:48.028Z,64.15
2018-04-26T22:38:18.687Z,59.15
2018-04-26T22:40:49.348Z,63.85
2018-04-26T22:43:20.031Z,57.60
2018-04-26T22:45:50.735Z,63.22
2018-04-26T22:48:21.709Z,57.75
2018-04-26T22:50:52.315Z,63.20
2018-04-26T22:53:22.842Z,60.85
2018-04-26T22:55:53.415Z,62.58
2018-04-26T22:58:23.993Z,68.65
2018-04-26T23:00:54.615Z,62.72
2018-04-26T23:03:25.252Z,68.20
2018-04-26T23:05:55.915Z,63.22
2018-04-26T23:08:26.591Z,66.70
2018-04-26T23:10:57.160Z,67.35
2018-04-26T23:13:27.951Z,66.32
2018-04-26T23:15:59.167Z,66.87
2018-04-26T23:18:29.920Z,68.03
2018-04-26T23:21:00.579Z,62.88
2018-04-26T23:23:31.514Z,59.72
2018-04-26T23:26:02.227Z,64.20
2018-04-26T23:28:33.044Z,63.92
2018-04-26T23:31:03.781Z,60.00
2018-04-26T23:33:34.479Z,61.05
2018-04-26T23:36:05.137Z,62.92
2018-04-26T23:38:35.728Z,60.05
2018-04-26T23:41:06.353Z,56.72
2018-04-26T23:43:36.972Z,60.12
2018-04-26T23:46:07.616Z,62.10
2018-04-26T23:48:38.217Z,61.45
2018-04-26T23:51:08.903Z,54.10
2018-04-26T23:53:39.425Z,55.97
2018-04-26T23:56:10.144Z,62.20
2018-04-26T23:58:40.939Z,59.33
